Rock Lake, North Dakota
Current Conditions -  °F | °C
As of 6:15 AM on Monday 20 Oct 2014 (Local Time) from K06D Reporting Station
Clear Clear  
Wind Chill: 32°   Ceiling: Unl
Heat Index: 32°   Visibility: 10mi
Dew Point: 28°   Wind: 0mph
Humidity: 87%   Direction: NA
Pressure: 30.04"   Gusts: NA
Location:  48.8584°N, 99.1311°W
Report Text: K06D 201115Z AUTO 00000KT 10SM CLR 00/M02 A3004 RMK AO2
Loading
Personal Weather Stations






























Interactive Weather Map New forecast layout! Learn more

10-Day Weather Forecast

Advertisements
Track Severe Weather on mobile